sensor_id;sensor_type;location;lat;lon;timestamp;pressure;altitude;pressure_sealevel;temperature;humidity
13011;BME280;6786;57.632;11.962;2023-11-19T00:01:21;100963.72;;;18.74;39.78
13011;BME280;6786;57.632;11.962;2023-11-19T00:03:49;100951.31;;;18.73;39.67
13011;BME280;6786;57.632;11.962;2023-11-19T00:06:17;100955.69;;;18.74;39.64
13011;BME280;6786;57.632;11.962;2023-11-19T00:08:46;100936.31;;;18.70;39.74
13011;BME280;6786;57.632;11.962;2023-11-19T00:11:16;100944.97;;;18.74;39.64
13011;BME280;6786;57.632;11.962;2023-11-19T00:13:44;100933.41;;;18.73;39.65
13011;BME280;6786;57.632;11.962;2023-11-19T00:16:12;100940.47;;;18.74;39.77
13011;BME280;6786;57.632;11.962;2023-11-19T00:18:41;100932.56;;;18.73;39.61
13011;BME280;6786;57.632;11.962;2023-11-19T00:21:09;100926.22;;;18.74;39.68
13011;BME280;6786;57.632;11.962;2023-11-19T00:23:37;100920.88;;;18.74;39.62
13011;BME280;6786;57.632;11.962;2023-11-19T00:26:05;100914.66;;;18.73;39.67
13011;BME280;6786;57.632;11.962;2023-11-19T00:28:35;100915.50;;;18.74;39.53
13011;BME280;6786;57.632;11.962;2023-11-19T00:31:05;100907.47;;;18.74;39.57
13011;BME280;6786;57.632;11.962;2023-11-19T00:33:34;100903.94;;;18.73;39.57
13011;BME280;6786;57.632;11.962;2023-11-19T00:36:16;100899.72;;;18.71;39.63
13011;BME280;6786;57.632;11.962;2023-11-19T00:38:44;100887.31;;;18.70;39.60
13011;BME280;6786;57.632;11.962;2023-11-19T00:41:12;100887.06;;;18.73;39.63
13011;BME280;6786;57.632;11.962;2023-11-19T00:43:44;100888.88;;;18.72;39.67
13011;BME280;6786;57.632;11.962;2023-11-19T00:46:12;100881.69;;;18.73;39.72
13011;BME280;6786;57.632;11.962;2023-11-19T00:48:41;100873.53;;;18.74;39.59
13011;BME280;6786;57.632;11.962;2023-11-19T00:51:11;100835.31;;;18.52;39.66
13011;BME280;6786;57.632;11.962;2023-11-19T00:53:39;100869.88;;;18.75;39.53
13011;BME280;6786;57.632;11.962;2023-11-19T00:56:08;100866.31;;;18.75;39.65
13011;BME280;6786;57.632;11.962;2023-11-19T00:58:39;100856.88;;;18.71;39.57
13011;BME280;6786;57.632;11.962;2023-11-19T01:01:08;100855.75;;;18.73;39.59
13011;BME280;6786;57.632;11.962;2023-11-19T01:03:36;100849.56;;;18.73;39.68
13011;BME280;6786;57.632;11.962;2023-11-19T01:06:05;100845.91;;;18.74;39.59
13011;BME280;6786;57.632;11.962;2023-11-19T01:08:35;100841.53;;;18.73;39.59
13011;BME280;6786;57.632;11.962;2023-11-19T01:11:06;100838.84;;;18.73;39.61
13011;BME280;6786;57.632;11.962;2023-11-19T01:13:35;100831.78;;;18.72;39.62
13011;BME280;6786;57.632;11.962;2023-11-19T01:16:03;100822.78;;;18.73;39.55
13011;BME280;6786;57.632;11.962;2023-11-19T01:18:37;100822.78;;;18.73;39.68
13011;BME280;6786;57.632;11.962;2023-11-19T01:21:05;100813.78;;;18.74;39.55
13011;BME280;6786;57.632;11.962;2023-11-19T01:23:34;100812.09;;;18.73;39.68
13011;BME280;6786;57.632;11.962;2023-11-19T01:26:02;100797.72;;;18.74;39.51
13011;BME280;6786;57.632;11.962;2023-11-19T01:28:32;100787.84;;;18.74;39.58
13011;BME280;6786;57.632;11.962;2023-11-19T01:31:00;100788.69;;;18.75;39.60
13011;BME280;6786;57.632;11.962;2023-11-19T01:33:28;100787.00;;;18.74;39.55
13011;BME280;6786;57.632;11.962;2023-11-19T01:35:58;100776.28;;;18.74;39.67
13011;BME280;6786;57.632;11.962;2023-11-19T01:38:26;100776.28;;;18.74;39.49
13011;BME280;6786;57.632;11.962;2023-11-19T01:40:56;100760.22;;;18.74;39.54
13011;BME280;6786;57.632;11.962;2023-11-19T01:43:34;100754.00;;;18.73;39.46
13011;BME280;6786;57.632;11.962;2023-11-19T01:46:04;100760.22;;;18.74;39.65
13011;BME280;6786;57.632;11.962;2023-11-19T01:48:34;100742.47;;;18.73;39.59
13011;BME280;6786;57.632;11.962;2023-11-19T01:51:05;100680.47;;;18.27;39.61
13011;BME280;6786;57.632;11.962;2023-11-19T01:53:34;100738.81;;;18.74;39.58
13011;BME280;6786;57.632;11.962;2023-11-19T01:56:04;100737.13;;;18.73;39.54
13011;BME280;6786;57.632;11.962;2023-11-19T01:58:33;100738.81;;;18.74;39.65
13011;BME280;6786;57.632;11.962;2023-11-19T02:01:01;100727.38;;;18.72;39.60
13011;BME280;6786;57.632;11.962;2023-11-19T02:03:31;100715.97;;;18.70;39.69
13011;BME280;6786;57.632;11.962;2023-11-19T02:06:00;100717.66;;;18.71;39.67
13011;BME280;6786;57.632;11.962;2023-11-19T02:08:30;100706.94;;;18.71;39.63
13011;BME280;6786;57.632;11.962;2023-11-19T02:10:58;100712.28;;;18.71;39.70
13011;BME280;6786;57.632;11.962;2023-11-19T02:13:27;100692.00;;;18.68;39.58
13011;BME280;6786;57.632;11.962;2023-11-19T02:15:55;100689.19;;;18.70;39.66
13011;BME280;6786;57.632;11.962;2023-11-19T02:18:24;100692.69;;;18.70;39.58
13011;BME280;6786;57.632;11.962;2023-11-19T02:20:55;100675.09;;;18.68;39.50
13011;BME280;6786;57.632;11.962;2023-11-19T02:23:25;100667.78;;;18.70;39.63
13011;BME280;6786;57.632;11.962;2023-11-19T02:26:14;100666.78;;;18.71;39.42
13011;BME280;6786;57.632;11.962;2023-11-19T02:28:46;100655.09;;;18.72;39.55
13011;BME280;6786;57.632;11.962;2023-11-19T02:31:14;100640.75;;;18.73;39.72
13011;BME280;6786;57.632;11.962;2023-11-19T02:33:42;100639.88;;;18.72;39.53
13011;BME280;6786;57.632;11.962;2023-11-19T02:36:11;100634.53;;;18.72;39.64
13011;BME280;6786;57.632;11.962;2023-11-19T02:38:39;100625.63;;;18.72;39.56
13011;BME280;6786;57.632;11.962;2023-11-19T02:41:07;100617.59;;;18.72;39.55
13011;BME280;6786;57.632;11.962;2023-11-19T02:43:37;100600.41;;;18.65;39.68
13011;BME280;6786;57.632;11.962;2023-11-19T02:46:07;100607.75;;;18.72;39.47
13011;BME280;6786;57.632;11.962;2023-11-19T02:48:38;100608.63;;;18.73;39.55
13011;BME280;6786;57.632;11.962;2023-11-19T02:51:07;100528.81;;;18.27;39.46
13011;BME280;6786;57.632;11.962;2023-11-19T02:53:37;100598.16;;;18.70;39.47
13011;BME280;6786;57.632;11.962;2023-11-19T02:56:07;100598.88;;;18.72;39.63
13011;BME280;6786;57.632;11.962;2023-11-19T02:58:43;100593.66;;;18.70;39.47
13011;BME280;6786;57.632;11.962;2023-11-19T03:01:21;100588.28;;;18.70;39.50
13011;BME280;6786;57.632;11.962;2023-11-19T03:03:58;100583.78;;;18.71;39.68
13011;BME280;6786;57.632;11.962;2023-11-19T03:06:30;100578.44;;;18.71;39.50
13011;BME280;6786;57.632;11.962;2023-11-19T03:08:59;100575.03;;;18.69;39.54
13011;BME280;6786;57.632;11.962;2023-11-19T03:11:32;100574.78;;;18.72;39.49
13011;BME280;6786;57.632;11.962;2023-11-19T03:14:01;100567.47;;;18.74;39.48
13011;BME280;6786;57.632;11.962;2023-11-19T03:16:31;100556.75;;;18.74;39.59
13011;BME280;6786;57.632;11.962;2023-11-19T03:18:59;100550.41;;;18.75;39.42
13011;BME280;6786;57.632;11.962;2023-11-19T03:21:28;100542.38;;;18.75;39.42
13011;BME280;6786;57.632;11.962;2023-11-19T03:23:57;100529.97;;;18.74;39.45
13011;BME280;6786;57.632;11.962;2023-11-19T03:26:27;100531.66;;;18.75;39.54
13011;BME280;6786;57.632;11.962;2023-11-19T03:28:55;100525.47;;;18.74;39.48
13011;BME280;6786;57.632;11.962;2023-11-19T03:31:24;100522.94;;;18.73;39.43
13011;BME280;6786;57.632;11.962;2023-11-19T03:33:54;100516.59;;;18.74;39.45
13011;BME280;6786;57.632;11.962;2023-11-19T03:36:25;100519.28;;;18.74;39.45
13011;BME280;6786;57.632;11.962;2023-11-19T03:38:53;100520.94;;;18.75;39.54
13011;BME280;6786;57.632;11.962;2023-11-19T03:41:21;100503.34;;;18.72;39.56
13011;BME280;6786;57.632;11.962;2023-11-19T03:43:49;100499.53;;;18.75;39.49
13011;BME280;6786;57.632;11.962;2023-11-19T03:46:18;100494.19;;;18.75;39.51
13011;BME280;6786;57.632;11.962;2023-11-19T03:48:47;100485.19;;;18.76;39.43
13011;BME280;6786;57.632;11.962;2023-11-19T03:51:17;100483.47;;;18.75;39.50
13011;BME280;6786;57.632;11.962;2023-11-19T03:53:45;100464.72;;;18.75;39.46
13011;BME280;6786;57.632;11.962;2023-11-19T03:56:13;100461.22;;;18.74;39.48
13011;BME280;6786;57.632;11.962;2023-11-19T03:58:41;100459.38;;;18.75;39.44
13011;BME280;6786;57.632;11.962;2023-11-19T04:01:11;100449.66;;;18.74;39.45
13011;BME280;6786;57.632;11.962;2023-11-19T04:03:41;100455.88;;;18.74;39.48
13011;BME280;6786;57.632;11.962;2023-11-19T04:06:12;100442.34;;;18.76;39.52
13011;BME280;6786;57.632;11.962;2023-11-19T04:08:42;100435.28;;;18.75;39.48
13011;BME280;6786;57.632;11.962;2023-11-19T04:11:10;100436.28;;;18.74;39.50
13011;BME280;6786;57.632;11.962;2023-11-19T04:13:38;100431.63;;;18.76;39.33
13011;BME280;6786;57.632;11.962;2023-11-19T04:16:07;100432.59;;;18.75;39.32
13011;BME280;6786;57.632;11.962;2023-11-19T04:18:36;100432.47;;;18.76;39.36
13011;BME280;6786;57.632;11.962;2023-11-19T04:21:06;100426.28;;;18.76;39.48
13011;BME280;6786;57.632;11.962;2023-11-19T04:23:34;100415.56;;;18.76;39.36
13011;BME280;6786;57.632;11.962;2023-11-19T04:26:04;100409.66;;;18.72;39.44
13011;BME280;6786;57.632;11.962;2023-11-19T04:28:37;100417.53;;;18.74;39.17
13011;BME280;6786;57.632;11.962;2023-11-19T04:31:05;100420.06;;;18.75;39.54
13011;BME280;6786;57.632;11.962;2023-11-19T04:33:33;100399.50;;;18.76;39.31
13011;BME280;6786;57.632;11.962;2023-11-19T04:36:02;100392.44;;;18.75;39.46
13011;BME280;6786;57.632;11.962;2023-11-19T04:38:30;100399.50;;;18.76;39.34
13011;BME280;6786;57.632;11.962;2023-11-19T04:40:58;100394.97;;;18.76;39.43
13011;BME280;6786;57.632;11.962;2023-11-19T04:43:28;100391.63;;;18.74;39.44
13011;BME280;6786;57.632;11.962;2023-11-19T04:45:56;100389.63;;;18.76;39.39
13011;BME280;6786;57.632;11.962;2023-11-19T04:48:25;100377.25;;;18.75;39.51
13011;BME280;6786;57.632;11.962;2023-11-19T04:50:53;100388.81;;;18.76;39.38
13011;BME280;6786;57.632;11.962;2023-11-19T04:53:21;100372.75;;;18.76;39.42
13011;BME280;6786;57.632;11.962;2023-11-19T04:55:49;100367.38;;;18.76;39.42
13011;BME280;6786;57.632;11.962;2023-11-19T04:58:18;100375.41;;;18.76;39.46
13011;BME280;6786;57.632;11.962;2023-11-19T05:00:48;100366.81;;;18.72;39.49
13011;BME280;6786;57.632;11.962;2023-11-19T05:03:16;100362.47;;;18.71;39.52
13011;BME280;6786;57.632;11.962;2023-11-19T05:05:45;100359.63;;;18.73;39.54
13011;BME280;6786;57.632;11.962;2023-11-19T05:08:13;100351.59;;;18.73;39.46
13011;BME280;6786;57.632;11.962;2023-11-19T05:10:41;100355.25;;;18.72;39.43
13011;BME280;6786;57.632;11.962;2023-11-19T05:13:09;100337.22;;;18.74;39.58
13011;BME280;6786;57.632;11.962;2023-11-19T05:15:37;100337.22;;;18.74;39.46
13011;BME280;6786;57.632;11.962;2023-11-19T05:18:08;100337.22;;;18.74;39.54
13011;BME280;6786;57.632;11.962;2023-11-19T05:20:36;100336.22;;;18.75;39.49
13011;BME280;6786;57.632;11.962;2023-11-19T05:23:05;100332.72;;;18.74;39.44
13011;BME280;6786;57.632;11.962;2023-11-19T05:25:46;100329.19;;;18.74;39.53
13011;BME280;6786;57.632;11.962;2023-11-19T05:28:14;100328.19;;;18.75;39.46
13011;BME280;6786;57.632;11.962;2023-11-19T05:30:42;100334.69;;;18.72;39.46
13011;BME280;6786;57.632;11.962;2023-11-19T05:33:13;100335.25;;;18.76;39.40
13011;BME280;6786;57.632;11.962;2023-11-19T05:35:41;100333.56;;;18.75;39.44
13011;BME280;6786;57.632;11.962;2023-11-19T05:38:09;100331.88;;;18.74;39.51
13011;BME280;6786;57.632;11.962;2023-11-19T05:40:37;100318.06;;;18.69;39.50
13011;BME280;6786;57.632;11.962;2023-11-19T05:43:06;100320.31;;;18.73;39.47
13011;BME280;6786;57.632;11.962;2023-11-19T05:45:34;100321.16;;;18.74;39.48
13011;BME280;6786;57.632;11.962;2023-11-19T05:48:03;100318.47;;;18.74;39.45
13011;BME280;6786;57.632;11.962;2023-11-19T05:50:32;100314.13;;;18.73;39.35
13011;BME280;6786;57.632;11.962;2023-11-19T05:53:01;100317.63;;;18.73;39.44
13011;BME280;6786;57.632;11.962;2023-11-19T05:55:29;100322.84;;;18.75;39.36
13011;BME280;6786;57.632;11.962;2023-11-19T05:57:58;100307.78;;;18.74;39.46
13011;BME280;6786;57.632;11.962;2023-11-19T06:00:26;100310.47;;;18.74;39.45
13011;BME280;6786;57.632;11.962;2023-11-19T06:02:55;100307.63;;;18.75;39.51
13011;BME280;6786;57.632;11.962;2023-11-19T06:05:23;100305.97;;;18.74;39.51
13011;BME280;6786;57.632;11.962;2023-11-19T06:07:53;100301.44;;;18.75;39.51
13011;BME280;6786;57.632;11.962;2023-11-19T06:10:21;100303.13;;;18.76;39.42
13011;BME280;6786;57.632;11.962;2023-11-19T06:12:51;100313.13;;;18.74;39.45
13011;BME280;6786;57.632;11.962;2023-11-19T06:15:22;100306.09;;;18.73;39.52
13011;BME280;6786;57.632;11.962;2023-11-19T06:17:51;100301.72;;;18.72;39.58
13011;BME280;6786;57.632;11.962;2023-11-19T06:20:19;100301.72;;;18.72;39.51
13011;BME280;6786;57.632;11.962;2023-11-19T06:22:47;100307.06;;;18.72;39.43
13011;BME280;6786;57.632;11.962;2023-11-19T06:25:17;100295.53;;;18.71;39.62
13011;BME280;6786;57.632;11.962;2023-11-19T06:27:45;100287.38;;;18.73;39.62
13011;BME280;6786;57.632;11.962;2023-11-19T06:30:13;100289.03;;;18.74;39.41
13011;BME280;6786;57.632;11.962;2023-11-19T06:32:42;100296.06;;;18.75;39.37
13011;BME280;6786;57.632;11.962;2023-11-19T06:35:10;100279.19;;;18.74;39.50
13011;BME280;6786;57.632;11.962;2023-11-19T06:37:40;100292.44;;;18.76;39.48
13011;BME280;6786;57.632;11.962;2023-11-19T06:40:09;100280.00;;;18.75;39.51
13011;BME280;6786;57.632;11.962;2023-11-19T06:42:40;100275.66;;;18.74;39.42
13011;BME280;6786;57.632;11.962;2023-11-19T06:45:08;100269.31;;;18.75;39.48
13011;BME280;6786;57.632;11.962;2023-11-19T06:47:37;100269.31;;;18.75;39.51
13011;BME280;6786;57.632;11.962;2023-11-19T06:50:06;100258.59;;;18.75;39.52
13011;BME280;6786;57.632;11.962;2023-11-19T06:52:36;100256.91;;;18.74;39.45
13011;BME280;6786;57.632;11.962;2023-11-19T06:55:05;100263.13;;;18.74;39.36
13011;BME280;6786;57.632;11.962;2023-11-19T06:57:35;100251.56;;;18.74;39.48
13011;BME280;6786;57.632;11.962;2023-11-19T07:00:06;100246.22;;;18.74;39.55
13011;BME280;6786;57.632;11.962;2023-11-19T07:02:36;100246.22;;;18.74;39.44
13011;BME280;6786;57.632;11.962;2023-11-19T07:05:05;100243.69;;;18.72;39.53
13011;BME280;6786;57.632;11.962;2023-11-19T07:07:33;100232.81;;;18.74;39.58
13011;BME280;6786;57.632;11.962;2023-11-19T07:10:02;100239.19;;;18.73;39.52
13011;BME280;6786;57.632;11.962;2023-11-19T07:12:32;100230.44;;;18.71;39.62
13011;BME280;6786;57.632;11.962;2023-11-19T07:15:03;100228.47;;;18.73;39.58
13011;BME280;6786;57.632;11.962;2023-11-19T07:17:33;100220.44;;;18.73;39.53
13011;BME280;6786;57.632;11.962;2023-11-19T07:20:04;100221.41;;;18.72;39.64
13011;BME280;6786;57.632;11.962;2023-11-19T07:22:32;100228.47;;;18.73;39.49
13011;BME280;6786;57.632;11.962;2023-11-19T07:25:01;100216.91;;;18.72;39.50
13011;BME280;6786;57.632;11.962;2023-11-19T07:27:29;100219.44;;;18.74;39.62
13011;BME280;6786;57.632;11.962;2023-11-19T07:29:57;100214.38;;;18.71;39.52
13011;BME280;6786;57.632;11.962;2023-11-19T07:32:25;100214.09;;;18.74;39.60
13011;BME280;6786;57.632;11.962;2023-11-19T07:34:55;100210.56;;;18.73;39.46
13011;BME280;6786;57.632;11.962;2023-11-19T07:37:23;100211.41;;;18.74;39.60
13011;BME280;6786;57.632;11.962;2023-11-19T07:39:51;100205.06;;;18.75;39.54
13011;BME280;6786;57.632;11.962;2023-11-19T07:42:19;100208.72;;;18.74;39.62
13011;BME280;6786;57.632;11.962;2023-11-19T07:44:48;100205.06;;;18.75;39.53
13011;BME280;6786;57.632;11.962;2023-11-19T07:47:16;100197.72;;;18.77;39.48
13011;BME280;6786;57.632;11.962;2023-11-19T07:49:44;100193.38;;;18.76;39.49
13011;BME280;6786;57.632;11.962;2023-11-19T07:52:14;100191.00;;;18.73;39.48
13011;BME280;6786;57.632;11.962;2023-11-19T07:54:45;100200.56;;;18.75;39.59
13011;BME280;6786;57.632;11.962;2023-11-19T07:57:15;100185.34;;;18.76;39.50
13011;BME280;6786;57.632;11.962;2023-11-19T07:59:44;100197.72;;;18.77;39.63
13011;BME280;6786;57.632;11.962;2023-11-19T08:02:12;100190.69;;;18.76;39.62
13011;BME280;6786;57.632;11.962;2023-11-19T08:04:41;100190.69;;;18.76;39.51
13011;BME280;6786;57.632;11.962;2023-11-19T08:07:15;100187.03;;;18.77;39.49
13011;BME280;6786;57.632;11.962;2023-11-19T08:09:44;100190.84;;;18.74;39.60
13011;BME280;6786;57.632;11.962;2023-11-19T08:12:12;100194.06;;;18.78;39.60
13011;BME280;6786;57.632;11.962;2023-11-19T08:14:43;100181.66;;;18.77;39.59
13011;BME280;6786;57.632;11.962;2023-11-19T08:17:11;100187.03;;;18.77;39.64
13011;BME280;6786;57.632;11.962;2023-11-19T08:19:39;100183.34;;;18.78;39.62
13011;BME280;6786;57.632;11.962;2023-11-19T08:22:07;100182.38;;;18.79;39.61
13011;BME280;6786;57.632;11.962;2023-11-19T08:24:37;100172.94;;;18.75;39.67
13011;BME280;6786;57.632;11.962;2023-11-19T08:27:06;100165.75;;;18.75;39.53
13011;BME280;6786;57.632;11.962;2023-11-19T08:29:34;100176.03;;;18.80;39.61
13011;BME280;6786;57.632;11.962;2023-11-19T08:32:02;100159.97;;;18.80;39.59
13011;BME280;6786;57.632;11.962;2023-11-19T08:34:31;100172.63;;;18.78;39.66
13011;BME280;6786;57.632;11.962;2023-11-19T08:36:59;100165.91;;;18.74;39.59
13011;BME280;6786;57.632;11.962;2023-11-19T08:39:27;100165.59;;;18.77;39.65
13011;BME280;6786;57.632;11.962;2023-11-19T08:41:58;100165.59;;;18.77;39.71
13011;BME280;6786;57.632;11.962;2023-11-19T08:44:27;100160.25;;;18.77;39.59
13011;BME280;6786;57.632;11.962;2023-11-19T08:46:55;100152.06;;;18.78;39.55
13011;BME280;6786;57.632;11.962;2023-11-19T08:49:23;100147.88;;;18.76;39.66
13011;BME280;6786;57.632;11.962;2023-11-19T08:51:52;100162.78;;;18.78;39.63
13011;BME280;6786;57.632;11.962;2023-11-19T08:54:20;100140.81;;;18.75;39.65
13011;BME280;6786;57.632;11.962;2023-11-19T08:56:49;100146.16;;;18.75;39.61
13011;BME280;6786;57.632;11.962;2023-11-19T08:59:19;100149.84;;;18.74;39.61
13011;BME280;6786;57.632;11.962;2023-11-19T09:01:48;100141.66;;;18.75;39.53
13011;BME280;6786;57.632;11.962;2023-11-19T09:04:16;100145.19;;;18.76;39.64
13011;BME280;6786;57.632;11.962;2023-11-19T09:06:44;100150.53;;;18.76;39.65
13011;BME280;6786;57.632;11.962;2023-11-19T09:09:12;100142.50;;;18.76;39.52
13011;BME280;6786;57.632;11.962;2023-11-19T09:11:41;100142.50;;;18.76;39.57
13011;BME280;6786;57.632;11.962;2023-11-19T09:14:09;100147.88;;;18.76;39.70
13011;BME280;6786;57.632;11.962;2023-11-19T09:16:39;100137.16;;;18.76;39.55
13011;BME280;6786;57.632;11.962;2023-11-19T09:19:07;100144.19;;;18.77;39.62
13011;BME280;6786;57.632;11.962;2023-11-19T09:21:35;100142.38;;;18.77;39.63
13011;BME280;6786;57.632;11.962;2023-11-19T09:24:05;100133.78;;;18.74;39.64
13011;BME280;6786;57.632;11.962;2023-11-19T09:26:34;100138.84;;;18.77;39.71
13011;BME280;6786;57.632;11.962;2023-11-19T09:29:03;100138.84;;;18.77;39.66
13011;BME280;6786;57.632;11.962;2023-11-19T09:31:34;100144.19;;;18.77;39.67
13011;BME280;6786;57.632;11.962;2023-11-19T09:34:04;100131.81;;;18.76;39.58
13011;BME280;6786;57.632;11.962;2023-11-19T09:36:32;100137.97;;;18.76;39.66
13011;BME280;6786;57.632;11.962;2023-11-19T09:39:00;100126.44;;;18.76;39.64
13011;BME280;6786;57.632;11.962;2023-11-19T09:41:29;100134.63;;;18.74;39.71
13011;BME280;6786;57.632;11.962;2023-11-19T09:43:58;100123.94;;;18.74;39.76
13011;BME280;6786;57.632;11.962;2023-11-19T09:46:26;100124.75;;;18.75;39.72
13011;BME280;6786;57.632;11.962;2023-11-19T09:48:57;100119.41;;;18.75;39.72
13011;BME280;6786;57.632;11.962;2023-11-19T09:51:28;100123.06;;;18.74;39.63
13011;BME280;6786;57.632;11.962;2023-11-19T09:53:56;100108.38;;;18.78;39.69
13011;BME280;6786;57.632;11.962;2023-11-19T09:56:25;100111.06;;;18.78;39.69
13011;BME280;6786;57.632;11.962;2023-11-19T09:58:55;100097.69;;;18.78;39.77
13011;BME280;6786;57.632;11.962;2023-11-19T10:01:23;100096.00;;;18.77;39.66
13011;BME280;6786;57.632;11.962;2023-11-19T10:03:55;100112.06;;;18.77;39.70
13011;BME280;6786;57.632;11.962;2023-11-19T10:06:24;100096.00;;;18.77;39.76
13011;BME280;6786;57.632;11.962;2023-11-19T10:08:55;100097.97;;;18.75;39.77
13011;BME280;6786;57.632;11.962;2023-11-19T10:11:23;100083.06;;;18.72;39.69
13011;BME280;6786;57.632;11.962;2023-11-19T10:13:53;100080.25;;;18.74;39.68
13011;BME280;6786;57.632;11.962;2023-11-19T10:16:28;100073.22;;;18.73;39.74
13011;BME280;6786;57.632;11.962;2023-11-19T10:18:57;100073.22;;;18.73;39.76
13011;BME280;6786;57.632;11.962;2023-11-19T10:21:25;100073.22;;;18.73;39.81
13011;BME280;6786;57.632;11.962;2023-11-19T10:23:56;100057.16;;;18.73;39.71
13011;BME280;6786;57.632;11.962;2023-11-19T10:26:27;100053.47;;;18.74;39.75
13011;BME280;6786;57.632;11.962;2023-11-19T10:28:56;100051.78;;;18.73;39.78
13011;BME280;6786;57.632;11.962;2023-11-19T10:31:24;100047.25;;;18.73;39.71
13011;BME280;6786;57.632;11.962;2023-11-19T10:33:53;100049.78;;;18.75;39.71
13011;BME280;6786;57.632;11.962;2023-11-19T10:36:22;100047.81;;;18.77;39.77
13011;BME280;6786;57.632;11.962;2023-11-19T10:38:52;100014.66;;;18.60;39.66
13011;BME280;6786;57.632;11.962;2023-11-19T10:41:29;100051.19;;;18.79;39.62
13011;BME280;6786;57.632;11.962;2023-11-19T10:43:57;100049.34;;;18.79;39.65
13011;BME280;6786;57.632;11.962;2023-11-19T10:46:37;100035.13;;;18.79;39.72
13011;BME280;6786;57.632;11.962;2023-11-19T10:49:06;100044.13;;;18.78;39.75
13011;BME280;6786;57.632;11.962;2023-11-19T10:51:34;100031.75;;;18.77;39.79
13011;BME280;6786;57.632;11.962;2023-11-19T10:54:04;100039.78;;;18.77;39.69
13011;BME280;6786;57.632;11.962;2023-11-19T10:56:34;100044.13;;;18.78;39.85
13011;BME280;6786;57.632;11.962;2023-11-19T10:59:03;100042.47;;;18.77;39.71
13011;BME280;6786;57.632;11.962;2023-11-19T11:01:52;100033.44;;;18.78;39.83
13011;BME280;6786;57.632;11.962;2023-11-19T11:04:24;100030.09;;;18.76;39.83
13011;BME280;6786;57.632;11.962;2023-11-19T11:06:54;100030.09;;;18.76;39.75
13011;BME280;6786;57.632;11.962;2023-11-19T11:09:26;100032.75;;;18.76;39.82
13011;BME280;6786;57.632;11.962;2023-11-19T11:11:56;100027.41;;;18.76;39.89
13011;BME280;6786;57.632;11.962;2023-11-19T11:14:27;100025.03;;;18.73;39.85
13011;BME280;6786;57.632;11.962;2023-11-19T11:16:56;100023.72;;;18.77;39.83
13011;BME280;6786;57.632;11.962;2023-11-19T11:19:26;100019.81;;;18.71;39.86
13011;BME280;6786;57.632;11.962;2023-11-19T11:21:55;100026.41;;;18.77;39.94
13011;BME280;6786;57.632;11.962;2023-11-19T11:24:56;100039.78;;;18.77;39.89
13011;BME280;6786;57.632;11.962;2023-11-19T11:27:43;100023.03;;;18.75;39.92
13011;BME280;6786;57.632;11.962;2023-11-19T11:30:26;100014.31;;;18.73;39.96
13011;BME280;6786;57.632;11.962;2023-11-19T11:33:06;100017.00;;;18.73;39.85
13011;BME280;6786;57.632;11.962;2023-11-19T11:35:48;100010.66;;;18.74;39.79
13011;BME280;6786;57.632;11.962;2023-11-19T11:38:21;100010.50;;;18.75;39.83
13011;BME280;6786;57.632;11.962;2023-11-19T11:41:17;100010.34;;;18.77;39.90
13011;BME280;6786;57.632;11.962;2023-11-19T11:43:49;100010.34;;;18.77;39.85
13011;BME280;6786;57.632;11.962;2023-11-19T11:46:55;100014.03;;;18.76;39.87
13011;BME280;6786;57.632;11.962;2023-11-19T11:49:27;100008.66;;;18.76;39.90
13011;BME280;6786;57.632;11.962;2023-11-19T11:51:59;100008.66;;;18.76;39.81
13011;BME280;6786;57.632;11.962;2023-11-19T11:54:28;99997.25;;;18.74;39.79
13011;BME280;6786;57.632;11.962;2023-11-19T11:57:06;99974.66;;;18.59;39.74
13011;BME280;6786;57.632;11.962;2023-11-19T11:59:45;99969.03;;;18.62;39.76
13011;BME280;6786;57.632;11.962;2023-11-19T12:02:15;99980.75;;;18.78;39.86
13011;BME280;6786;57.632;11.962;2023-11-19T12:04:47;99982.56;;;18.78;39.88
13011;BME280;6786;57.632;11.962;2023-11-19T12:07:17;99979.59;;;18.81;39.81
13011;BME280;6786;57.632;11.962;2023-11-19T12:09:51;99967.50;;;18.77;39.85
13011;BME280;6786;57.632;11.962;2023-11-19T12:12:21;99981.59;;;18.79;39.91
13011;BME280;6786;57.632;11.962;2023-11-19T12:15:02;99972.88;;;18.77;39.88
13011;BME280;6786;57.632;11.962;2023-11-19T12:17:56;99970.88;;;18.79;39.88
13011;BME280;6786;57.632;11.962;2023-11-19T12:20:25;99970.88;;;18.79;39.95
13011;BME280;6786;57.632;11.962;2023-11-19T12:23:04;99977.22;;;18.78;39.91
13011;BME280;6786;57.632;11.962;2023-11-19T12:25:34;99974.53;;;18.78;39.86
13011;BME280;6786;57.632;11.962;2023-11-19T12:28:03;99974.53;;;18.78;39.84
13011;BME280;6786;57.632;11.962;2023-11-19T12:30:34;99970.88;;;18.79;39.85
13011;BME280;6786;57.632;11.962;2023-11-19T12:33:07;99959.88;;;18.82;39.93
13011;BME280;6786;57.632;11.962;2023-11-19T12:35:39;99946.25;;;18.75;39.88
13011;BME280;6786;57.632;11.962;2023-11-19T12:38:07;99964.22;;;18.83;39.79
13011;BME280;6786;57.632;11.962;2023-11-19T12:40:35;99961.84;;;18.80;39.99
13011;BME280;6786;57.632;11.962;2023-11-19T12:43:03;99965.53;;;18.79;39.99
13011;BME280;6786;57.632;11.962;2023-11-19T12:45:36;99958.19;;;18.81;39.91
13011;BME280;6786;57.632;11.962;2023-11-19T12:48:06;99952.16;;;18.79;40.04
13011;BME280;6786;57.632;11.962;2023-11-19T12:50:54;99951.16;;;18.80;39.94
13011;BME280;6786;57.632;11.962;2023-11-19T12:53:25;99957.34;;;18.80;39.97
13011;BME280;6786;57.632;11.962;2023-11-19T12:55:55;99905.41;;;18.56;39.90
13011;BME280;6786;57.632;11.962;2023-11-19T12:58:29;99937.06;;;18.78;39.87
13011;BME280;6786;57.632;11.962;2023-11-19T13:01:04;99947.78;;;18.78;39.96
13011;BME280;6786;57.632;11.962;2023-11-19T13:03:33;99923.91;;;18.67;39.83
13011;BME280;6786;57.632;11.962;2023-11-19T13:06:03;99946.09;;;18.77;39.97